Skip Navigation Links Skip Navigation Links

Current Weather

Cairo Rgnl, Cairo, Ill.

For information only: do not use for flight planning or navigation.
Latest weather
Observation time Thursday, January 27, 2022 10:55 PM CST
Local time Thursday, January 27, 2022 11:13 PM CST
Flight conditions Visual Meteorological Conditions
Winds
Wind speed calm
Visibility 10 mi.
Sky condition
Ceiling 4,400 ft. broken clouds
Cloud layer scattered clouds 3,700 ft.
Cloud layer broken clouds 4,400 ft.
Temperature 27°F
Dewpoint 21°F
Altimeter 30.27 in.Hg
Derived measurements
Relative humidity 79%
Wind chill 27°F
Density altitude -2209 ft.
Remarks
Fully automated report.
Automated weather observing station with precipitation discriminator.
METAR KCIR 280455Z AUTO 00000KT 10SM SCT037 BKN044 M03/M06 A3027 RMK AO2 T10281060

Settings

Location code

InnerDrive.Weather 4.0.6770.0 Release CLR 4.0.30319.42000
Copyright ©2018 Inner Drive Technology. All rights reserved. Portions Copyright ©1986-2018 David Braverman.

Find weather

Site navigation


Skip Navigation Links

Place info

Page info

PayPal - The safer, easier way to pay online!

Return home.

Copyright ©2022 Inner Drive Technology. Purveyors of fine, hand-crafted computer software. Page printed 2022-01-28T05:13:13 UTC.